sensor_id;sensor_type;location;lat;lon;timestamp;P1;durP1;ratioP1;P2;durP2;ratioP2
28756;SDS011;44294;48.282;14.282;2022-07-10T00:02:44;6.57;;;4.20;;
28756;SDS011;44294;48.282;14.282;2022-07-10T00:05:32;5.60;;;4.60;;
28756;SDS011;44294;48.282;14.282;2022-07-10T00:08:20;6.50;;;4.40;;
28756;SDS011;44294;48.282;14.282;2022-07-10T00:11:08;4.60;;;4.20;;
28756;SDS011;44294;48.282;14.282;2022-07-10T00:13:55;5.00;;;4.50;;
28756;SDS011;44294;48.282;14.282;2022-07-10T00:16:43;5.43;;;4.30;;
28756;SDS011;44294;48.282;14.282;2022-07-10T00:19:30;5.53;;;4.50;;
28756;SDS011;44294;48.282;14.282;2022-07-10T00:22:17;5.20;;;4.30;;
28756;SDS011;44294;48.282;14.282;2022-07-10T00:25:05;6.73;;;4.60;;
28756;SDS011;44294;48.282;14.282;2022-07-10T00:27:53;6.50;;;4.17;;
28756;SDS011;44294;48.282;14.282;2022-07-10T00:30:40;5.90;;;3.93;;
28756;SDS011;44294;48.282;14.282;2022-07-10T00:33:28;6.37;;;4.30;;
28756;SDS011;44294;48.282;14.282;2022-07-10T00:36:17;386.10;;;168.00;;
28756;SDS011;44294;48.282;14.282;2022-07-10T00:39:04;6.50;;;4.50;;
28756;SDS011;44294;48.282;14.282;2022-07-10T00:41:52;1462.73;;;702.33;;
28756;SDS011;44294;48.282;14.282;2022-07-10T00:44:39;5.67;;;4.20;;
28756;SDS011;44294;48.282;14.282;2022-07-10T00:47:27;4.97;;;4.40;;
28756;SDS011;44294;48.282;14.282;2022-07-10T00:50:14;5.10;;;4.57;;
28756;SDS011;44294;48.282;14.282;2022-07-10T00:53:02;1756.57;;;407.00;;
28756;SDS011;44294;48.282;14.282;2022-07-10T00:55:49;1205.80;;;445.13;;
28756;SDS011;44294;48.282;14.282;2022-07-10T00:58:37;4.60;;;4.20;;
28756;SDS011;44294;48.282;14.282;2022-07-10T01:01:25;4.90;;;4.30;;
28756;SDS011;44294;48.282;14.282;2022-07-10T01:04:13;6.50;;;4.47;;
28756;SDS011;44294;48.282;14.282;2022-07-10T01:07:00;5.23;;;4.60;;
28756;SDS011;44294;48.282;14.282;2022-07-10T01:09:48;5.70;;;4.40;;
28756;SDS011;44294;48.282;14.282;2022-07-10T01:12:35;5.57;;;4.93;;
28756;SDS011;44294;48.282;14.282;2022-07-10T01:15:23;8.57;;;4.50;;
28756;SDS011;44294;48.282;14.282;2022-07-10T01:18:10;5.93;;;4.37;;
28756;SDS011;44294;48.282;14.282;2022-07-10T01:20:58;7.03;;;4.30;;
28756;SDS011;44294;48.282;14.282;2022-07-10T01:23:45;6.37;;;4.70;;
28756;SDS011;44294;48.282;14.282;2022-07-10T01:26:32;5.00;;;4.50;;
28756;SDS011;44294;48.282;14.282;2022-07-10T01:29:20;5.30;;;4.60;;
28756;SDS011;44294;48.282;14.282;2022-07-10T01:32:09;6.93;;;4.63;;
28756;SDS011;44294;48.282;14.282;2022-07-10T01:34:56;6.30;;;4.20;;
28756;SDS011;44294;48.282;14.282;2022-07-10T01:37:44;5.63;;;4.60;;
28756;SDS011;44294;48.282;14.282;2022-07-10T01:40:31;5.93;;;4.50;;
28756;SDS011;44294;48.282;14.282;2022-07-10T01:43:18;6.37;;;4.67;;
28756;SDS011;44294;48.282;14.282;2022-07-10T01:46:06;4.80;;;4.20;;
28756;SDS011;44294;48.282;14.282;2022-07-10T01:48:53;5.20;;;4.70;;
28756;SDS011;44294;48.282;14.282;2022-07-10T01:51:40;5.43;;;4.53;;
28756;SDS011;44294;48.282;14.282;2022-07-10T01:54:28;4.80;;;4.33;;
28756;SDS011;44294;48.282;14.282;2022-07-10T01:57:16;4.80;;;4.30;;
28756;SDS011;44294;48.282;14.282;2022-07-10T02:00:04;5.57;;;4.00;;
28756;SDS011;44294;48.282;14.282;2022-07-10T02:02:51;6.47;;;4.77;;
28756;SDS011;44294;48.282;14.282;2022-07-10T02:05:57;5.60;;;4.40;;
28756;SDS011;44294;48.282;14.282;2022-07-10T02:08:44;5.80;;;4.40;;
28756;SDS011;44294;48.282;14.282;2022-07-10T02:11:32;7.10;;;4.67;;
28756;SDS011;44294;48.282;14.282;2022-07-10T02:14:19;4.93;;;4.50;;
28756;SDS011;44294;48.282;14.282;2022-07-10T02:17:07;4.83;;;4.33;;
28756;SDS011;44294;48.282;14.282;2022-07-10T02:19:55;5.70;;;4.70;;
28756;SDS011;44294;48.282;14.282;2022-07-10T02:22:42;6.20;;;4.80;;
28756;SDS011;44294;48.282;14.282;2022-07-10T02:25:29;5.50;;;4.60;;
28756;SDS011;44294;48.282;14.282;2022-07-10T02:28:16;5.07;;;4.57;;
28756;SDS011;44294;48.282;14.282;2022-07-10T02:31:04;7.43;;;4.87;;
28756;SDS011;44294;48.282;14.282;2022-07-10T02:33:51;7.50;;;4.90;;
28756;SDS011;44294;48.282;14.282;2022-07-10T02:36:39;7.03;;;5.33;;
28756;SDS011;44294;48.282;14.282;2022-07-10T02:39:26;5.63;;;4.80;;
28756;SDS011;44294;48.282;14.282;2022-07-10T02:42:13;5.23;;;4.70;;
28756;SDS011;44294;48.282;14.282;2022-07-10T02:45:00;5.70;;;5.10;;
28756;SDS011;44294;48.282;14.282;2022-07-10T02:47:48;7.57;;;5.33;;
28756;SDS011;44294;48.282;14.282;2022-07-10T02:50:35;5.60;;;5.00;;
28756;SDS011;44294;48.282;14.282;2022-07-10T02:53:22;5.97;;;5.10;;
28756;SDS011;44294;48.282;14.282;2022-07-10T02:56:10;5.37;;;4.50;;
28756;SDS011;44294;48.282;14.282;2022-07-10T02:58:57;5.97;;;4.67;;
28756;SDS011;44294;48.282;14.282;2022-07-10T03:01:45;5.73;;;4.57;;
28756;SDS011;44294;48.282;14.282;2022-07-10T03:04:32;9.37;;;4.80;;
28756;SDS011;44294;48.282;14.282;2022-07-10T03:07:20;5.00;;;4.50;;
28756;SDS011;44294;48.282;14.282;2022-07-10T03:10:07;5.53;;;4.63;;
28756;SDS011;44294;48.282;14.282;2022-07-10T03:12:55;5.33;;;4.70;;
28756;SDS011;44294;48.282;14.282;2022-07-10T03:15:42;5.93;;;4.37;;
28756;SDS011;44294;48.282;14.282;2022-07-10T03:18:29;696.63;;;40.47;;
28756;SDS011;44294;48.282;14.282;2022-07-10T03:21:17;4.90;;;4.40;;
28756;SDS011;44294;48.282;14.282;2022-07-10T03:24:04;5.13;;;4.47;;
28756;SDS011;44294;48.282;14.282;2022-07-10T03:26:52;5.00;;;4.50;;
28756;SDS011;44294;48.282;14.282;2022-07-10T03:29:40;4.90;;;4.43;;
28756;SDS011;44294;48.282;14.282;2022-07-10T03:32:27;5.03;;;4.60;;
28756;SDS011;44294;48.282;14.282;2022-07-10T03:35:15;6.33;;;4.60;;
28756;SDS011;44294;48.282;14.282;2022-07-10T03:38:02;6.13;;;5.53;;
28756;SDS011;44294;48.282;14.282;2022-07-10T03:40:49;7.70;;;5.57;;
28756;SDS011;44294;48.282;14.282;2022-07-10T03:43:37;7.20;;;5.73;;
28756;SDS011;44294;48.282;14.282;2022-07-10T03:46:24;6.70;;;5.23;;
28756;SDS011;44294;48.282;14.282;2022-07-10T03:49:11;7.80;;;5.40;;
28756;SDS011;44294;48.282;14.282;2022-07-10T03:51:59;7.30;;;5.77;;
28756;SDS011;44294;48.282;14.282;2022-07-10T03:54:47;131.83;;;9.90;;
28756;SDS011;44294;48.282;14.282;2022-07-10T03:57:35;19.43;;;8.77;;
28756;SDS011;44294;48.282;14.282;2022-07-10T04:00:40;7.37;;;5.53;;
28756;SDS011;44294;48.282;14.282;2022-07-10T04:03:28;9.83;;;5.83;;
28756;SDS011;44294;48.282;14.282;2022-07-10T04:06:16;8.67;;;5.97;;
28756;SDS011;44294;48.282;14.282;2022-07-10T04:09:03;6.73;;;5.63;;
28756;SDS011;44294;48.282;14.282;2022-07-10T04:11:50;7.07;;;5.47;;
28756;SDS011;44294;48.282;14.282;2022-07-10T04:14:38;136.43;;;13.17;;
28756;SDS011;44294;48.282;14.282;2022-07-10T04:17:25;19.17;;;17.43;;
28756;SDS011;44294;48.282;14.282;2022-07-10T04:20:12;7.43;;;5.80;;
28756;SDS011;44294;48.282;14.282;2022-07-10T04:23:00;242.90;;;19.23;;
28756;SDS011;44294;48.282;14.282;2022-07-10T04:25:47;6.60;;;5.80;;
28756;SDS011;44294;48.282;14.282;2022-07-10T04:28:34;515.27;;;28.73;;
28756;SDS011;44294;48.282;14.282;2022-07-10T04:31:22;10.30;;;5.63;;
28756;SDS011;44294;48.282;14.282;2022-07-10T04:34:09;8.13;;;6.77;;
28756;SDS011;44294;48.282;14.282;2022-07-10T04:36:56;9.83;;;6.03;;
28756;SDS011;44294;48.282;14.282;2022-07-10T04:39:44;7.27;;;6.10;;
28756;SDS011;44294;48.282;14.282;2022-07-10T04:42:32;107.43;;;12.13;;
28756;SDS011;44294;48.282;14.282;2022-07-10T04:45:19;8.10;;;5.93;;
28756;SDS011;44294;48.282;14.282;2022-07-10T04:48:07;10.33;;;5.93;;
28756;SDS011;44294;48.282;14.282;2022-07-10T04:50:54;7.80;;;5.60;;
28756;SDS011;44294;48.282;14.282;2022-07-10T04:53:42;8.03;;;5.40;;
28756;SDS011;44294;48.282;14.282;2022-07-10T04:56:29;8.13;;;5.70;;
28756;SDS011;44294;48.282;14.282;2022-07-10T04:59:16;9.37;;;5.77;;
28756;SDS011;44294;48.282;14.282;2022-07-10T05:02:04;11.97;;;6.20;;
28756;SDS011;44294;48.282;14.282;2022-07-10T05:04:51;6.90;;;6.20;;
28756;SDS011;44294;48.282;14.282;2022-07-10T05:07:38;162.47;;;12.23;;
28756;SDS011;44294;48.282;14.282;2022-07-10T05:10:25;14.87;;;7.80;;
28756;SDS011;44294;48.282;14.282;2022-07-10T05:13:13;9.20;;;5.90;;
28756;SDS011;44294;48.282;14.282;2022-07-10T05:16:00;8.20;;;5.63;;
28756;SDS011;44294;48.282;14.282;2022-07-10T05:18:48;7.17;;;5.70;;
28756;SDS011;44294;48.282;14.282;2022-07-10T05:21:35;8.13;;;5.30;;
28756;SDS011;44294;48.282;14.282;2022-07-10T05:24:22;7.80;;;5.20;;
28756;SDS011;44294;48.282;14.282;2022-07-10T05:27:10;5.83;;;5.23;;
28756;SDS011;44294;48.282;14.282;2022-07-10T05:29:57;7.07;;;5.80;;
28756;SDS011;44294;48.282;14.282;2022-07-10T05:32:44;7.97;;;5.17;;
28756;SDS011;44294;48.282;14.282;2022-07-10T05:35:32;5.77;;;4.83;;
28756;SDS011;44294;48.282;14.282;2022-07-10T05:38:19;4.90;;;4.50;;
28756;SDS011;44294;48.282;14.282;2022-07-10T05:41:07;6.10;;;5.27;;
28756;SDS011;44294;48.282;14.282;2022-07-10T05:43:54;5.70;;;5.10;;
28756;SDS011;44294;48.282;14.282;2022-07-10T05:46:41;5.60;;;5.00;;
28756;SDS011;44294;48.282;14.282;2022-07-10T05:49:29;7.13;;;4.87;;
28756;SDS011;44294;48.282;14.282;2022-07-10T05:52:18;6.07;;;4.83;;
28756;SDS011;44294;48.282;14.282;2022-07-10T05:55:06;5.20;;;4.70;;
28756;SDS011;44294;48.282;14.282;2022-07-10T05:57:54;7.17;;;4.60;;
28756;SDS011;44294;48.282;14.282;2022-07-10T06:00:42;62.43;;;7.27;;
28756;SDS011;44294;48.282;14.282;2022-07-10T06:03:32;6.00;;;5.40;;
28756;SDS011;44294;48.282;14.282;2022-07-10T06:06:19;5.43;;;4.73;;
28756;SDS011;44294;48.282;14.282;2022-07-10T06:09:07;6.27;;;5.33;;
28756;SDS011;44294;48.282;14.282;2022-07-10T06:11:54;7.20;;;4.80;;
28756;SDS011;44294;48.282;14.282;2022-07-10T06:14:42;14.77;;;5.87;;
28756;SDS011;44294;48.282;14.282;2022-07-10T06:17:29;5.23;;;4.73;;
28756;SDS011;44294;48.282;14.282;2022-07-10T06:20:16;7.97;;;5.20;;
28756;SDS011;44294;48.282;14.282;2022-07-10T06:23:04;6.03;;;5.03;;
28756;SDS011;44294;48.282;14.282;2022-07-10T06:25:51;6.07;;;5.47;;
28756;SDS011;44294;48.282;14.282;2022-07-10T06:28:38;7.33;;;5.80;;
28756;SDS011;44294;48.282;14.282;2022-07-10T06:31:26;9.27;;;6.40;;
28756;SDS011;44294;48.282;14.282;2022-07-10T06:34:13;11.40;;;6.17;;
28756;SDS011;44294;48.282;14.282;2022-07-10T06:37:00;9.03;;;6.20;;
28756;SDS011;44294;48.282;14.282;2022-07-10T06:39:48;6.73;;;6.03;;
28756;SDS011;44294;48.282;14.282;2022-07-10T06:42:35;6.47;;;5.80;;
28756;SDS011;44294;48.282;14.282;2022-07-10T06:45:23;6.63;;;5.93;;
28756;SDS011;44294;48.282;14.282;2022-07-10T06:48:10;7.10;;;6.00;;
28756;SDS011;44294;48.282;14.282;2022-07-10T06:50:57;7.57;;;5.70;;
28756;SDS011;44294;48.282;14.282;2022-07-10T06:53:45;6.23;;;5.57;;
28756;SDS011;44294;48.282;14.282;2022-07-10T06:56:32;6.10;;;5.50;;
28756;SDS011;44294;48.282;14.282;2022-07-10T06:59:20;7.57;;;5.80;;
28756;SDS011;44294;48.282;14.282;2022-07-10T07:02:07;6.10;;;5.50;;
28756;SDS011;44294;48.282;14.282;2022-07-10T07:04:54;7.83;;;6.10;;
28756;SDS011;44294;48.282;14.282;2022-07-10T07:07:42;7.00;;;5.80;;
28756;SDS011;44294;48.282;14.282;2022-07-10T07:10:29;7.13;;;5.90;;
28756;SDS011;44294;48.282;14.282;2022-07-10T07:13:17;75.73;;;8.20;;
28756;SDS011;44294;48.282;14.282;2022-07-10T07:16:04;7.33;;;5.37;;
28756;SDS011;44294;48.282;14.282;2022-07-10T07:18:54;6.03;;;5.43;;
28756;SDS011;44294;48.282;14.282;2022-07-10T07:21:46;6.63;;;5.90;;
28756;SDS011;44294;48.282;14.282;2022-07-10T07:24:51;6.87;;;5.50;;
28756;SDS011;44294;48.282;14.282;2022-07-10T07:27:38;7.37;;;5.47;;
28756;SDS011;44294;48.282;14.282;2022-07-10T07:30:26;6.30;;;5.50;;
28756;SDS011;44294;48.282;14.282;2022-07-10T07:33:13;8.13;;;5.30;;
28756;SDS011;44294;48.282;14.282;2022-07-10T07:36:01;5.90;;;5.30;;
28756;SDS011;44294;48.282;14.282;2022-07-10T07:38:48;7.50;;;5.47;;
28756;SDS011;44294;48.282;14.282;2022-07-10T07:41:36;6.13;;;5.10;;
28756;SDS011;44294;48.282;14.282;2022-07-10T07:44:23;19.63;;;8.17;;
28756;SDS011;44294;48.282;14.282;2022-07-10T07:47:10;6.83;;;5.13;;
28756;SDS011;44294;48.282;14.282;2022-07-10T07:50:01;8.07;;;5.60;;
28756;SDS011;44294;48.282;14.282;2022-07-10T07:52:46;5.70;;;5.10;;
28756;SDS011;44294;48.282;14.282;2022-07-10T07:55:34;7.87;;;5.40;;
28756;SDS011;44294;48.282;14.282;2022-07-10T07:58:22;1999.90;;;999.90;;
28756;SDS011;44294;48.282;14.282;2022-07-10T08:01:09;1999.90;;;999.90;;
28756;SDS011;44294;48.282;14.282;2022-07-10T08:03:56;1999.90;;;999.90;;
28756;SDS011;44294;48.282;14.282;2022-07-10T08:06:44;1999.90;;;999.90;;
28756;SDS011;44294;48.282;14.282;2022-07-10T08:09:32;8.50;;;6.80;;
28756;SDS011;44294;48.282;14.282;2022-07-10T08:12:19;12.40;;;9.40;;
28756;SDS011;44294;48.282;14.282;2022-07-10T08:15:10;12.87;;;11.30;;
28756;SDS011;44294;48.282;14.282;2022-07-10T08:17:57;15.27;;;10.67;;
28756;SDS011;44294;48.282;14.282;2022-07-10T08:20:47;248.63;;;229.47;;
28756;SDS011;44294;48.282;14.282;2022-07-10T08:23:34;5.87;;;5.10;;
28756;SDS011;44294;48.282;14.282;2022-07-10T08:26:21;7.03;;;5.00;;
28756;SDS011;44294;48.282;14.282;2022-07-10T08:29:09;7.63;;;5.97;;
28756;SDS011;44294;48.282;14.282;2022-07-10T08:31:56;9.33;;;6.50;;
28756;SDS011;44294;48.282;14.282;2022-07-10T08:34:43;6.00;;;5.23;;
28756;SDS011;44294;48.282;14.282;2022-07-10T08:37:38;1201.90;;;179.60;;
28756;SDS011;44294;48.282;14.282;2022-07-10T08:40:25;117.73;;;53.20;;
28756;SDS011;44294;48.282;14.282;2022-07-10T08:43:14;62.43;;;6.33;;
28756;SDS011;44294;48.282;14.282;2022-07-10T08:46:02;7.23;;;4.57;;
28756;SDS011;44294;48.282;14.282;2022-07-10T08:48:50;5.80;;;4.70;;
28756;SDS011;44294;48.282;14.282;2022-07-10T08:51:44;10.27;;;6.73;;
28756;SDS011;44294;48.282;14.282;2022-07-10T08:54:30;6.10;;;5.47;;
28756;SDS011;44294;48.282;14.282;2022-07-10T08:57:18;4.80;;;4.20;;
28756;SDS011;44294;48.282;14.282;2022-07-10T09:00:07;6.20;;;4.50;;
28756;SDS011;44294;48.282;14.282;2022-07-10T09:02:54;7.80;;;6.80;;
28756;SDS011;44294;48.282;14.282;2022-07-10T09:05:42;9.10;;;4.83;;
28756;SDS011;44294;48.282;14.282;2022-07-10T09:08:30;4.20;;;3.80;;
28756;SDS011;44294;48.282;14.282;2022-07-10T09:11:19;30.37;;;6.20;;
28756;SDS011;44294;48.282;14.282;2022-07-10T09:14:07;7.77;;;4.93;;
28756;SDS011;44294;48.282;14.282;2022-07-10T09:16:55;3.83;;;3.50;;
28756;SDS011;44294;48.282;14.282;2022-07-10T09:19:43;167.27;;;8.00;;
28756;SDS011;44294;48.282;14.282;2022-07-10T09:22:30;13.43;;;10.60;;
28756;SDS011;44294;48.282;14.282;2022-07-10T09:25:17;5.07;;;4.57;;
28756;SDS011;44294;48.282;14.282;2022-07-10T09:28:05;3.80;;;3.47;;
28756;SDS011;44294;48.282;14.282;2022-07-10T09:30:52;53.03;;;5.00;;
28756;SDS011;44294;48.282;14.282;2022-07-10T09:33:39;2.90;;;2.70;;
28756;SDS011;44294;48.282;14.282;2022-07-10T09:36:27;3.57;;;3.00;;
28756;SDS011;44294;48.282;14.282;2022-07-10T09:39:14;1633.00;;;81.50;;
28756;SDS011;44294;48.282;14.282;2022-07-10T09:42:02;550.57;;;25.47;;
28756;SDS011;44294;48.282;14.282;2022-07-10T09:44:50;238.53;;;15.17;;
28756;SDS011;44294;48.282;14.282;2022-07-10T09:47:42;917.20;;;45.67;;
28756;SDS011;44294;48.282;14.282;2022-07-10T09:50:30;45.80;;;4.83;;
28756;SDS011;44294;48.282;14.282;2022-07-10T09:53:19;2.73;;;2.53;;
28756;SDS011;44294;48.282;14.282;2022-07-10T09:56:12;3.30;;;2.77;;
28756;SDS011;44294;48.282;14.282;2022-07-10T09:59:00;39.63;;;6.10;;
28756;SDS011;44294;48.282;14.282;2022-07-10T10:01:48;387.43;;;29.57;;
28756;SDS011;44294;48.282;14.282;2022-07-10T10:04:36;3.60;;;2.90;;
28756;SDS011;44294;48.282;14.282;2022-07-10T10:07:24;2.90;;;2.60;;
28756;SDS011;44294;48.282;14.282;2022-07-10T10:10:13;4.03;;;3.30;;
28756;SDS011;44294;48.282;14.282;2022-07-10T10:13:02;2.83;;;2.60;;
28756;SDS011;44294;48.282;14.282;2022-07-10T10:15:50;9.07;;;6.23;;
28756;SDS011;44294;48.282;14.282;2022-07-10T10:18:39;8.20;;;5.67;;
28756;SDS011;44294;48.282;14.282;2022-07-10T10:21:29;6.03;;;2.90;;
28756;SDS011;44294;48.282;14.282;2022-07-10T10:24:16;4.53;;;2.50;;
28756;SDS011;44294;48.282;14.282;2022-07-10T10:27:05;2.40;;;2.20;;
28756;SDS011;44294;48.282;14.282;2022-07-10T10:29:53;5.17;;;3.93;;
28756;SDS011;44294;48.282;14.282;2022-07-10T10:32:41;740.87;;;181.83;;
28756;SDS011;44294;48.282;14.282;2022-07-10T10:35:44;2.63;;;2.37;;
28756;SDS011;44294;48.282;14.282;2022-07-10T10:41:41;2.47;;;2.23;;
28756;SDS011;44294;48.282;14.282;2022-07-10T10:44:29;1435.17;;;69.30;;
28756;SDS011;44294;48.282;14.282;2022-07-10T10:47:18;7.73;;;2.30;;
28756;SDS011;44294;48.282;14.282;2022-07-10T10:50:05;1314.80;;;58.40;;
28756;SDS011;44294;48.282;14.282;2022-07-10T10:53:00;1134.47;;;59.63;;
28756;SDS011;44294;48.282;14.282;2022-07-10T10:58:49;3.27;;;1.90;;
28756;SDS011;44294;48.282;14.282;2022-07-10T11:01:37;4.60;;;4.20;;
28756;SDS011;44294;48.282;14.282;2022-07-10T11:04:25;76.00;;;3.80;;
28756;SDS011;44294;48.282;14.282;2022-07-10T11:07:12;7.47;;;2.30;;
28756;SDS011;44294;48.282;14.282;2022-07-10T11:13:10;2.73;;;2.23;;
28756;SDS011;44294;48.282;14.282;2022-07-10T11:15:58;4.87;;;2.10;;
28756;SDS011;44294;48.282;14.282;2022-07-10T11:18:45;6.10;;;1.93;;
28756;SDS011;44294;48.282;14.282;2022-07-10T11:21:38;2.20;;;1.93;;
28756;SDS011;44294;48.282;14.282;2022-07-10T11:24:31;4.80;;;1.87;;
28756;SDS011;44294;48.282;14.282;2022-07-10T11:30:03;113.73;;;12.90;;
28756;SDS011;44294;48.282;14.282;2022-07-10T11:32:51;35.07;;;3.83;;
28756;SDS011;44294;48.282;14.282;2022-07-10T11:35:39;2.00;;;1.70;;
28756;SDS011;44294;48.282;14.282;2022-07-10T11:38:26;2.17;;;1.70;;
28756;SDS011;44294;48.282;14.282;2022-07-10T11:41:18;181.83;;;38.73;;
28756;SDS011;44294;48.282;14.282;2022-07-10T11:44:05;213.33;;;9.90;;
28756;SDS011;44294;48.282;14.282;2022-07-10T11:46:53;2.40;;;2.20;;
28756;SDS011;44294;48.282;14.282;2022-07-10T11:49:45;6.17;;;2.00;;
28756;SDS011;44294;48.282;14.282;2022-07-10T11:52:35;340.80;;;29.63;;
28756;SDS011;44294;48.282;14.282;2022-07-10T11:55:23;118.97;;;20.23;;
28756;SDS011;44294;48.282;14.282;2022-07-10T11:58:14;43.27;;;29.43;;
28756;SDS011;44294;48.282;14.282;2022-07-10T12:01:03;359.73;;;20.33;;
28756;SDS011;44294;48.282;14.282;2022-07-10T12:03:53;787.43;;;427.83;;
28756;SDS011;44294;48.282;14.282;2022-07-10T12:06:46;174.97;;;160.23;;
28756;SDS011;44294;48.282;14.282;2022-07-10T12:09:35;15.57;;;3.63;;
28756;SDS011;44294;48.282;14.282;2022-07-10T12:12:24;8.27;;;4.13;;
28756;SDS011;44294;48.282;14.282;2022-07-10T12:15:29;121.67;;;8.57;;
28756;SDS011;44294;48.282;14.282;2022-07-10T12:18:00;5.57;;;1.70;;
28756;SDS011;44294;48.282;14.282;2022-07-10T12:20:48;2.20;;;1.87;;
28756;SDS011;44294;48.282;14.282;2022-07-10T12:23:36;3.53;;;1.80;;
28756;SDS011;44294;48.282;14.282;2022-07-10T12:26:35;1.70;;;1.50;;
28756;SDS011;44294;48.282;14.282;2022-07-10T12:29:28;1.60;;;1.50;;
28756;SDS011;44294;48.282;14.282;2022-07-10T12:32:12;2.90;;;1.70;;
28756;SDS011;44294;48.282;14.282;2022-07-10T12:35:01;94.03;;;7.13;;
28756;SDS011;44294;48.282;14.282;2022-07-10T12:37:48;2.50;;;1.60;;
28756;SDS011;44294;48.282;14.282;2022-07-10T12:40:36;768.57;;;39.07;;
28756;SDS011;44294;48.282;14.282;2022-07-10T12:43:24;2.70;;;2.13;;
28756;SDS011;44294;48.282;14.282;2022-07-10T12:46:16;4.97;;;2.10;;
28756;SDS011;44294;48.282;14.282;2022-07-10T12:49:09;1.70;;;1.53;;
28756;SDS011;44294;48.282;14.282;2022-07-10T12:51:58;2.27;;;1.50;;
28756;SDS011;44294;48.282;14.282;2022-07-10T12:54:45;3.53;;;1.60;;
28756;SDS011;44294;48.282;14.282;2022-07-10T12:57:33;2.43;;;1.70;;
28756;SDS011;44294;48.282;14.282;2022-07-10T13:00:22;3.17;;;1.60;;
28756;SDS011;44294;48.282;14.282;2022-07-10T13:03:11;3.10;;;1.40;;
28756;SDS011;44294;48.282;14.282;2022-07-10T13:06:00;2.30;;;1.40;;
28756;SDS011;44294;48.282;14.282;2022-07-10T13:08:48;3.40;;;1.77;;
28756;SDS011;44294;48.282;14.282;2022-07-10T13:11:36;2.10;;;1.50;;
28756;SDS011;44294;48.282;14.282;2022-07-10T13:14:23;19.27;;;2.83;;
28756;SDS011;44294;48.282;14.282;2022-07-10T13:17:10;69.13;;;5.27;;
28756;SDS011;44294;48.282;14.282;2022-07-10T13:19:57;7.37;;;3.27;;
28756;SDS011;44294;48.282;14.282;2022-07-10T13:22:45;1.60;;;1.47;;
28756;SDS011;44294;48.282;14.282;2022-07-10T13:25:32;2.60;;;1.77;;
28756;SDS011;44294;48.282;14.282;2022-07-10T13:28:20;66.43;;;7.03;;
28756;SDS011;44294;48.282;14.282;2022-07-10T13:31:08;208.00;;;176.90;;
28756;SDS011;44294;48.282;14.282;2022-07-10T13:33:55;5.97;;;1.87;;
28756;SDS011;44294;48.282;14.282;2022-07-10T13:36:42;2.57;;;1.57;;
28756;SDS011;44294;48.282;14.282;2022-07-10T13:39:30;2.70;;;1.73;;
28756;SDS011;44294;48.282;14.282;2022-07-10T13:42:17;4.60;;;3.13;;
28756;SDS011;44294;48.282;14.282;2022-07-10T13:45:05;13.80;;;9.00;;
28756;SDS011;44294;48.282;14.282;2022-07-10T13:47:54;4.23;;;2.53;;
28756;SDS011;44294;48.282;14.282;2022-07-10T13:50:42;4.10;;;3.53;;
28756;SDS011;44294;48.282;14.282;2022-07-10T13:53:32;10.67;;;7.83;;
28756;SDS011;44294;48.282;14.282;2022-07-10T13:56:19;4.10;;;2.40;;
28756;SDS011;44294;48.282;14.282;2022-07-10T13:59:07;2.00;;;1.43;;
28756;SDS011;44294;48.282;14.282;2022-07-10T14:01:54;2.37;;;2.17;;
28756;SDS011;44294;48.282;14.282;2022-07-10T14:04:42;2.10;;;1.60;;
28756;SDS011;44294;48.282;14.282;2022-07-10T14:07:29;5.93;;;3.73;;
28756;SDS011;44294;48.282;14.282;2022-07-10T14:10:16;2.47;;;1.80;;
28756;SDS011;44294;48.282;14.282;2022-07-10T14:13:04;1.60;;;1.40;;
28756;SDS011;44294;48.282;14.282;2022-07-10T14:15:51;1.97;;;1.50;;
28756;SDS011;44294;48.282;14.282;2022-07-10T14:18:39;3.10;;;1.40;;
28756;SDS011;44294;48.282;14.282;2022-07-10T14:21:28;5.00;;;1.50;;
28756;SDS011;44294;48.282;14.282;2022-07-10T14:24:15;1.40;;;1.30;;
28756;SDS011;44294;48.282;14.282;2022-07-10T14:27:03;2.53;;;1.80;;
28756;SDS011;44294;48.282;14.282;2022-07-10T14:29:50;3.30;;;2.00;;
28756;SDS011;44294;48.282;14.282;2022-07-10T14:32:38;4.30;;;1.70;;
28756;SDS011;44294;48.282;14.282;2022-07-10T14:35:25;2.43;;;1.67;;
28756;SDS011;44294;48.282;14.282;2022-07-10T14:38:12;2.70;;;1.63;;
28756;SDS011;44294;48.282;14.282;2022-07-10T14:41:00;3.10;;;2.80;;
28756;SDS011;44294;48.282;14.282;2022-07-10T14:43:47;15.63;;;7.40;;
28756;SDS011;44294;48.282;14.282;2022-07-10T14:46:35;9.07;;;5.53;;
28756;SDS011;44294;48.282;14.282;2022-07-10T14:49:22;14.37;;;8.90;;
28756;SDS011;44294;48.282;14.282;2022-07-10T14:52:10;7.27;;;4.30;;
28756;SDS011;44294;48.282;14.282;2022-07-10T14:54:57;5.43;;;2.73;;
28756;SDS011;44294;48.282;14.282;2022-07-10T14:57:44;4.70;;;3.03;;
28756;SDS011;44294;48.282;14.282;2022-07-10T15:00:33;3.33;;;2.30;;
28756;SDS011;44294;48.282;14.282;2022-07-10T15:03:20;5.70;;;3.20;;
28756;SDS011;44294;48.282;14.282;2022-07-10T15:06:08;2.70;;;1.50;;
28756;SDS011;44294;48.282;14.282;2022-07-10T15:08:56;3.63;;;1.60;;
28756;SDS011;44294;48.282;14.282;2022-07-10T15:11:44;6.83;;;5.30;;
28756;SDS011;44294;48.282;14.282;2022-07-10T15:14:32;4.10;;;2.77;;
28756;SDS011;44294;48.282;14.282;2022-07-10T15:17:19;4.13;;;2.83;;
28756;SDS011;44294;48.282;14.282;2022-07-10T15:20:07;3.67;;;1.90;;
28756;SDS011;44294;48.282;14.282;2022-07-10T15:22:54;3.20;;;2.13;;
28756;SDS011;44294;48.282;14.282;2022-07-10T15:25:42;6.20;;;1.83;;
28756;SDS011;44294;48.282;14.282;2022-07-10T15:28:29;2.20;;;1.77;;
28756;SDS011;44294;48.282;14.282;2022-07-10T15:31:17;1.40;;;1.30;;
28756;SDS011;44294;48.282;14.282;2022-07-10T15:34:08;2.87;;;1.83;;
28756;SDS011;44294;48.282;14.282;2022-07-10T15:36:55;2.07;;;1.67;;
28756;SDS011;44294;48.282;14.282;2022-07-10T15:39:43;2.63;;;1.53;;
28756;SDS011;44294;48.282;14.282;2022-07-10T15:42:31;1.60;;;1.50;;
28756;SDS011;44294;48.282;14.282;2022-07-10T15:45:18;2.73;;;1.57;;
28756;SDS011;44294;48.282;14.282;2022-07-10T15:48:05;1.63;;;1.40;;
28756;SDS011;44294;48.282;14.282;2022-07-10T15:50:53;2.33;;;1.40;;
28756;SDS011;44294;48.282;14.282;2022-07-10T15:53:41;1.80;;;1.60;;
28756;SDS011;44294;48.282;14.282;2022-07-10T15:56:28;3.30;;;2.00;;
28756;SDS011;44294;48.282;14.282;2022-07-10T15:59:15;3.67;;;3.30;;
28756;SDS011;44294;48.282;14.282;2022-07-10T16:02:04;4.33;;;2.87;;
28756;SDS011;44294;48.282;14.282;2022-07-10T16:04:52;2.50;;;1.70;;
28756;SDS011;44294;48.282;14.282;2022-07-10T16:07:39;5.97;;;3.73;;
28756;SDS011;44294;48.282;14.282;2022-07-10T16:10:26;4.20;;;3.10;;
28756;SDS011;44294;48.282;14.282;2022-07-10T16:13:14;2.40;;;1.60;;
28756;SDS011;44294;48.282;14.282;2022-07-10T16:16:01;2.50;;;1.73;;
28756;SDS011;44294;48.282;14.282;2022-07-10T16:18:48;1.83;;;1.60;;
28756;SDS011;44294;48.282;14.282;2022-07-10T16:21:37;1.60;;;1.50;;
28756;SDS011;44294;48.282;14.282;2022-07-10T16:24:25;1.63;;;1.50;;
28756;SDS011;44294;48.282;14.282;2022-07-10T16:27:14;2.40;;;1.60;;
28756;SDS011;44294;48.282;14.282;2022-07-10T16:30:01;3.60;;;1.60;;
28756;SDS011;44294;48.282;14.282;2022-07-10T16:32:48;2.17;;;1.50;;
28756;SDS011;44294;48.282;14.282;2022-07-10T16:35:36;3.90;;;3.40;;
28756;SDS011;44294;48.282;14.282;2022-07-10T16:38:23;3.80;;;2.63;;
28756;SDS011;44294;48.282;14.282;2022-07-10T16:41:11;8.07;;;5.50;;
28756;SDS011;44294;48.282;14.282;2022-07-10T16:43:58;3.40;;;1.70;;